Time;durP1;ratioP1;P1;durP2;ratioP2;P2;SDS_P1;SDS_P2;PMS_P1;PMS_P2;Temp;Humidity;BMP_temperature;BMP_pressure;BME280_temperature;BME280_humidity;BME280_pressure;Samples;Min_cycle;Max_cycle;Signal;HPM_P1;HPM_P2
2021/04/01 00:00:30;;;;;;;;;;;23.30;30.00;;;;;;5053522;28;19995;-52
2021/04/01 00:02:56;;;;;;;;;;;23.30;30.00;;;;;;5053773;28;19917;-55
2021/04/01 00:05:27;;;;;;;;;;;23.30;30.10;;;;;;5053367;28;20275;-57
2021/04/01 00:07:53;;;;;;;;;;;23.30;30.10;;;;;;5053352;28;19923;-59
2021/04/01 00:10:21;;;;;;;;;;;23.20;30.10;;;;;;5053076;28;19916;-55
2021/04/01 00:12:47;;;;;;;;;;;23.20;30.10;;;;;;5053669;28;19924;-55
2021/04/01 00:15:13;;;;;;;;;;;23.20;30.10;;;;;;5051998;28;19913;-58
2021/04/01 00:17:39;;;;;;;;;;;23.20;30.20;;;;;;5052537;28;19909;-50
2021/04/01 00:20:07;;;;;;;;;;;23.20;30.10;;;;;;5053704;28;19919;-52
2021/04/01 00:22:32;;;;;;;;;;;23.20;30.10;;;;;;5052534;28;20011;-54
2021/04/01 00:24:58;;;;;;;;;;;23.20;30.10;;;;;;5052451;28;20047;-52
2021/04/01 00:27:24;;;;;;;;;;;23.20;30.10;;;;;;5053225;28;19920;-55
2021/04/01 00:29:49;;;;;;;;;;;23.20;30.10;;;;;;5052139;28;20184;-53
2021/04/01 00:32:15;;;;;;;;;;;23.20;30.10;;;;;;5046199;28;19909;-56
2021/04/01 00:34:41;;;;;;;;;;;23.20;30.10;;;;;;5045398;28;19991;-55
2021/04/01 00:37:06;;;;;;;;;;;23.20;30.10;;;;;;5052393;28;19908;-55
2021/04/01 00:39:32;;;;;;;;;;;23.20;30.10;;;;;;5051929;28;19970;-54
2021/04/01 00:41:58;;;;;;;;;;;23.10;30.10;;;;;;5052725;28;19908;-53
2021/04/01 00:44:23;;;;;;;;;;;23.10;30.10;;;;;;5045935;28;19916;-52
2021/04/01 00:46:49;;;;;;;;;;;23.20;30.20;;;;;;5052511;28;20310;-57
2021/04/01 00:49:15;;;;;;;;;;;23.10;30.10;;;;;;5046092;28;19908;-53
2021/04/01 00:51:41;;;;;;;;;;;23.10;30.10;;;;;;5052859;28;19962;-55
2021/04/01 00:54:07;;;;;;;;;;;23.20;30.20;;;;;;5050930;28;19916;-51
2021/04/01 00:56:33;;;;;;;;;;;23.10;30.20;;;;;;5052469;28;19948;-50
2021/04/01 00:58:59;;;;;;;;;;;23.10;30.20;;;;;;5051570;28;19952;-57
2021/04/01 01:03:51;;;;;;;;;;;23.10;30.20;;;;;;5047067;28;19928;-52
2021/04/01 01:06:17;;;;;;;;;;;23.10;30.30;;;;;;5053252;28;19909;-56
2021/04/01 01:08:42;;;;;;;;;;;23.10;30.20;;;;;;5047314;28;19978;-58
2021/04/01 01:11:08;;;;;;;;;;;23.10;30.30;;;;;;5052388;28;19920;-57
2021/04/01 01:13:33;;;;;;;;;;;23.10;30.30;;;;;;5051694;28;19919;-57
2021/04/01 01:15:59;;;;;;;;;;;23.10;30.30;;;;;;5051891;28;19917;-52
2021/04/01 01:18:28;;;;;;;;;;;23.10;30.40;;;;;;5051832;28;19985;-54
2021/04/01 01:20:57;;;;;;;;;;;23.10;30.40;;;;;;5049611;28;19919;-54
2021/04/01 01:23:25;;;;;;;;;;;23.10;30.40;;;;;;5052113;28;19998;-50
2021/04/01 01:25:50;;;;;;;;;;;23.10;30.50;;;;;;5051347;28;19931;-53
2021/04/01 01:28:16;;;;;;;;;;;23.10;30.60;;;;;;5052638;28;20256;-52
2021/04/01 01:30:42;;;;;;;;;;;23.10;30.50;;;;;;5051133;28;19969;-52
2021/04/01 01:33:08;;;;;;;;;;;23.10;30.50;;;;;;5051618;28;19959;-55
2021/04/01 01:35:37;;;;;;;;;;;23.00;30.50;;;;;;5051538;28;20451;-55
2021/04/01 01:38:04;;;;;;;;;;;23.00;30.60;;;;;;5052745;28;19960;-51
2021/04/01 01:40:31;;;;;;;;;;;23.00;30.60;;;;;;5051221;28;19920;-55
2021/04/01 01:42:57;;;;;;;;;;;23.00;30.60;;;;;;5051700;28;19966;-55
2021/04/01 01:45:24;;;;;;;;;;;23.00;30.60;;;;;;5041387;28;19909;-57
2021/04/01 01:47:49;;;;;;;;;;;23.00;30.70;;;;;;5033790;28;20252;-57
2021/04/01 01:50:16;;;;;;;;;;;23.00;30.70;;;;;;5051531;28;19909;-56
2021/04/01 01:52:42;;;;;;;;;;;23.00;30.80;;;;;;5051165;28;19932;-53
2021/04/01 01:55:08;;;;;;;;;;;23.00;30.80;;;;;;5052372;28;19912;-55
2021/04/01 01:57:35;;;;;;;;;;;23.00;30.80;;;;;;5049409;28;19912;-57
2021/04/01 02:00:01;;;;;;;;;;;23.00;30.80;;;;;;5053588;28;19916;-55
2021/04/01 02:02:27;;;;;;;;;;;23.00;30.80;;;;;;5055090;28;19908;-55
2021/04/01 02:04:54;;;;;;;;;;;23.00;30.80;;;;;;5055972;28;19927;-58
2021/04/01 02:07:19;;;;;;;;;;;23.00;30.90;;;;;;5054743;28;20351;-54
2021/04/01 02:09:46;;;;;;;;;;;23.00;30.90;;;;;;5055571;28;20251;-54
2021/04/01 02:12:12;;;;;;;;;;;23.00;31.00;;;;;;5055135;28;20343;-54
2021/04/01 02:14:38;;;;;;;;;;;23.00;31.00;;;;;;5055380;28;19923;-51
2021/04/01 02:17:04;;;;;;;;;;;23.00;31.00;;;;;;5055597;28;20307;-52
2021/04/01 02:19:30;;;;;;;;;;;23.00;31.00;;;;;;5055647;28;19916;-55
2021/04/01 02:21:55;;;;;;;;;;;23.00;31.10;;;;;;5054825;28;19909;-55
2021/04/01 02:24:21;;;;;;;;;;;22.90;31.10;;;;;;5054898;28;20015;-57
2021/04/01 02:26:47;;;;;;;;;;;22.90;31.10;;;;;;5054492;28;19924;-55
2021/04/01 02:29:12;;;;;;;;;;;22.90;31.10;;;;;;5055292;28;19966;-57
2021/04/01 02:31:38;;;;;;;;;;;22.90;31.10;;;;;;5055828;28;19908;-52
2021/04/01 02:34:04;;;;;;;;;;;23.00;31.20;;;;;;5054704;28;20240;-56
2021/04/01 02:36:29;;;;;;;;;;;22.90;31.10;;;;;;5054227;28;19916;-55
2021/04/01 02:38:55;;;;;;;;;;;22.90;31.10;;;;;;5054935;28;19916;-53
2021/04/01 02:41:21;;;;;;;;;;;22.90;31.10;;;;;;5054569;28;19909;-52
2021/04/01 02:43:46;;;;;;;;;;;22.90;31.10;;;;;;5055053;28;20027;-59
2021/04/01 02:46:13;;;;;;;;;;;22.90;31.10;;;;;;5054801;28;19966;-58
2021/04/01 02:48:39;;;;;;;;;;;22.90;31.10;;;;;;5054040;28;19916;-57
2021/04/01 02:51:04;;;;;;;;;;;22.90;31.10;;;;;;5054532;28;19919;-57
2021/04/01 02:53:30;;;;;;;;;;;22.90;31.10;;;;;;5055182;28;19916;-57
2021/04/01 02:55:56;;;;;;;;;;;22.90;31.10;;;;;;5053906;28;19974;-54
2021/04/01 02:58:22;;;;;;;;;;;22.90;31.10;;;;;;5054000;28;20347;-56
2021/04/01 03:00:47;;;;;;;;;;;22.90;31.10;;;;;;5054123;28;19908;-57
2021/04/01 03:03:48;;;;;;;;;;;22.90;31.10;;;;;;5054066;28;20316;-51
2021/04/01 03:06:05;;;;;;;;;;;22.90;31.10;;;;;;5061542;28;20427;-54
2021/04/01 03:08:31;;;;;;;;;;;22.90;31.10;;;;;;5045562;28;19912;-52
2021/04/01 03:10:56;;;;;;;;;;;22.80;31.00;;;;;;5053658;28;19909;-59
2021/04/01 03:13:23;;;;;;;;;;;22.80;31.00;;;;;;5053701;28;19923;-54
2021/04/01 03:15:50;;;;;;;;;;;22.90;31.00;;;;;;5053679;28;19908;-52
2021/04/01 03:18:16;;;;;;;;;;;22.80;31.00;;;;;;5053762;28;19927;-54
2021/04/01 03:20:42;;;;;;;;;;;22.90;31.00;;;;;;5054148;28;19909;-57
2021/04/01 03:23:08;;;;;;;;;;;22.80;31.00;;;;;;5053573;28;20111;-56
2021/04/01 03:25:33;;;;;;;;;;;22.90;31.00;;;;;;5053867;28;20307;-56
2021/04/01 03:28:01;;;;;;;;;;;22.80;30.90;;;;;;5053532;28;19966;-55
2021/04/01 03:30:27;;;;;;;;;;;22.80;30.90;;;;;;5053583;28;20022;-49
2021/04/01 03:32:52;;;;;;;;;;;22.80;30.90;;;;;;5047533;28;19909;-55
2021/04/01 03:35:22;;;;;;;;;;;22.80;30.90;;;;;;5053707;28;19936;-58
2021/04/01 03:37:51;;;;;;;;;;;22.80;30.90;;;;;;5050253;28;19908;-53
2021/04/01 03:40:17;;;;;;;;;;;22.80;31.00;;;;;;5053581;28;20236;-52
2021/04/01 03:42:42;;;;;;;;;;;22.80;31.00;;;;;;5052746;28;19909;-57
2021/04/01 03:45:09;;;;;;;;;;;22.80;31.00;;;;;;5052817;28;19908;-58
2021/04/01 03:47:36;;;;;;;;;;;22.80;31.00;;;;;;5052066;28;19908;-51
2021/04/01 03:50:02;;;;;;;;;;;22.80;31.00;;;;;;5053631;28;19928;-55
2021/04/01 03:52:28;;;;;;;;;;;22.80;31.00;;;;;;5053563;28;19948;-56
2021/04/01 03:54:58;;;;;;;;;;;22.80;31.00;;;;;;5052808;28;20382;-56
2021/04/01 03:57:24;;;;;;;;;;;22.80;31.00;;;;;;5052808;28;19909;-57
2021/04/01 03:59:59;;;;;;;;;;;22.80;31.10;;;;;;5053502;28;19986;-55
2021/04/01 04:10:14;;;;;;;;;;;22.70;31.00;;;;;;5057873;28;20304;-59
2021/04/01 04:15:24;;;;;;;;;;;22.70;31.10;;;;;;5052651;28;19918;-58
2021/04/01 04:17:50;;;;;;;;;;;22.70;31.00;;;;;;5050600;28;19999;-58
2021/04/01 04:20:18;;;;;;;;;;;22.70;31.00;;;;;;5053684;28;19909;-57
2021/04/01 04:22:44;;;;;;;;;;;22.70;31.00;;;;;;5052813;28;19908;-53
2021/04/01 04:25:11;;;;;;;;;;;22.70;31.10;;;;;;5052036;28;19920;-55
2021/04/01 04:30:19;;;;;;;;;;;22.70;31.10;;;;;;5054099;28;19917;-57
2021/04/01 04:32:45;;;;;;;;;;;22.70;31.10;;;;;;5051589;28;19909;-53
2021/04/01 04:35:10;;;;;;;;;;;22.70;31.10;;;;;;5053397;28;19923;-55
2021/04/01 04:37:36;;;;;;;;;;;22.70;31.10;;;;;;5045107;28;19912;-55
2021/04/01 04:40:04;;;;;;;;;;;22.70;31.10;;;;;;5045993;28;19999;-55
2021/04/01 04:42:29;;;;;;;;;;;22.70;31.10;;;;;;5053425;28;20255;-56
2021/04/01 04:44:55;;;;;;;;;;;22.70;31.20;;;;;;5053083;28;19927;-58
2021/04/01 04:47:20;;;;;;;;;;;22.60;31.10;;;;;;5052224;28;19909;-59
2021/04/01 04:49:46;;;;;;;;;;;22.70;31.20;;;;;;5052235;28;19909;-54
2021/04/01 04:52:12;;;;;;;;;;;22.60;31.10;;;;;;5053249;28;19952;-56
2021/04/01 04:54:37;;;;;;;;;;;22.70;31.20;;;;;;5052801;28;19908;-52
2021/04/01 04:57:21;;;;;;;;;;;22.60;31.10;;;;;;5046094;28;19917;-59
2021/04/01 05:00:21;;;;;;;;;;;22.60;31.20;;;;;;5054056;28;20183;-56
2021/04/01 05:05:33;;;;;;;;;;;22.60;31.20;;;;;;5052562;28;20339;-52
2021/04/01 05:07:59;;;;;;;;;;;22.60;31.20;;;;;;5051726;28;19909;-56
2021/04/01 05:10:24;;;;;;;;;;;22.60;31.30;;;;;;5051821;28;20003;-53
2021/04/01 05:15:28;;;;;;;;;;;22.60;31.30;;;;;;5050927;28;20011;-53
2021/04/01 05:17:59;;;;;;;;;;;22.60;31.30;;;;;;5051622;28;20878;-50
2021/04/01 05:20:25;;;;;;;;;;;22.60;31.30;;;;;;5050573;28;19908;-54
2021/04/01 05:22:56;;;;;;;;;;;22.60;31.30;;;;;;5051615;28;19913;-58
2021/04/01 05:25:22;;;;;;;;;;;22.60;31.40;;;;;;5051126;28;20008;-55
2021/04/01 05:27:53;;;;;;;;;;;22.60;31.40;;;;;;5049033;28;19908;-51
2021/04/01 05:30:20;;;;;;;;;;;22.60;31.40;;;;;;5052087;28;20236;-56
2021/04/01 05:32:46;;;;;;;;;;;22.50;31.40;;;;;;5045526;28;20240;-55
2021/04/01 05:35:15;;;;;;;;;;;22.60;31.50;;;;;;5048788;28;19912;-57
2021/04/01 05:37:41;;;;;;;;;;;22.50;31.40;;;;;;5051022;28;20208;-55
2021/04/01 05:40:08;;;;;;;;;;;22.50;31.40;;;;;;5052446;28;19974;-59
2021/04/01 05:42:37;;;;;;;;;;;22.60;31.50;;;;;;5051744;28;20040;-53
2021/04/01 05:47:56;;;;;;;;;;;22.50;31.50;;;;;;5050963;28;19909;-54
2021/04/01 05:50:42;;;;;;;;;;;22.50;31.50;;;;;;5050035;28;19915;-52
2021/04/01 06:04:02;;;;;;;;;;;22.50;31.70;;;;;;5052102;28;20220;-53
2021/04/01 06:06:45;;;;;;;;;;;22.50;31.70;;;;;;5051854;28;19909;-52
2021/04/01 06:09:17;;;;;;;;;;;22.50;31.80;;;;;;5050967;28;19916;-55
2021/04/01 06:11:43;;;;;;;;;;;22.50;31.80;;;;;;5051100;28;19935;-57
2021/04/01 06:14:13;;;;;;;;;;;22.50;31.80;;;;;;5051030;28;19917;-55
2021/04/01 06:16:41;;;;;;;;;;;22.50;31.90;;;;;;5053493;28;19913;-55
2021/04/01 06:19:08;;;;;;;;;;;22.50;31.90;;;;;;5051136;28;20259;-51
2021/04/01 06:21:38;;;;;;;;;;;22.50;31.90;;;;;;5051727;28;20314;-57
2021/04/01 06:24:13;;;;;;;;;;;22.50;31.90;;;;;;5047030;28;19917;-55
2021/04/01 06:26:43;;;;;;;;;;;22.50;31.90;;;;;;5052622;28;19928;-57
2021/04/01 06:29:10;;;;;;;;;;;22.50;32.00;;;;;;5049837;28;19920;-56
2021/04/01 06:31:42;;;;;;;;;;;22.50;32.00;;;;;;5050987;28;19916;-55
2021/04/01 06:34:08;;;;;;;;;;;22.50;32.10;;;;;;5050851;28;20304;-50
2021/04/01 06:36:36;;;;;;;;;;;22.50;32.10;;;;;;5051628;28;20336;-51
2021/04/01 06:39:02;;;;;;;;;;;22.50;32.10;;;;;;5050520;28;19971;-55
2021/04/01 06:41:29;;;;;;;;;;;22.50;32.20;;;;;;5049894;28;20300;-53
2021/04/01 06:44:24;;;;;;;;;;;22.50;32.20;;;;;;5050543;28;19978;-53
2021/04/01 06:46:51;;;;;;;;;;;22.50;32.30;;;;;;5035689;28;19988;-54
2021/04/01 06:52:14;;;;;;;;;;;22.50;32.40;;;;;;5055172;28;19920;-55
2021/04/01 06:54:50;;;;;;;;;;;22.50;32.50;;;;;;5053666;28;20287;-52
2021/04/01 07:02:45;;;;;;;;;;;22.50;32.50;;;;;;5054155;28;20340;-53
2021/04/01 07:05:20;;;;;;;;;;;22.50;32.50;;;;;;5055772;28;20324;-52
2021/04/01 07:07:50;;;;;;;;;;;22.50;32.60;;;;;;5054212;28;19920;-56
2021/04/01 07:10:35;;;;;;;;;;;22.50;32.60;;;;;;5059638;28;20312;-51
2021/04/01 07:13:06;;;;;;;;;;;22.50;32.60;;;;;;5054929;28;19917;-58
2021/04/01 07:15:34;;;;;;;;;;;22.50;32.60;;;;;;5053831;28;19962;-55
2021/04/01 07:18:06;;;;;;;;;;;22.50;32.60;;;;;;5054960;28;20263;-54
2021/04/01 07:23:28;;;;;;;;;;;22.50;32.70;;;;;;5055404;28;20301;-56
2021/04/01 07:48:16;;;;;;;;;;;22.90;32.40;;;;;;5049218;28;19931;-53
2021/04/01 07:50:43;;;;;;;;;;;23.00;32.40;;;;;;5046326;28;19921;-54
2021/04/01 07:53:12;;;;;;;;;;;23.00;32.40;;;;;;5048308;28;19923;-53
2021/04/01 08:04:09;;;;;;;;;;;23.10;32.30;;;;;;5016064;28;19928;-57
2021/04/01 08:06:38;;;;;;;;;;;23.10;32.20;;;;;;5047807;28;20027;-49
2021/04/01 08:09:07;;;;;;;;;;;23.20;32.20;;;;;;5047235;28;19909;-55
2021/04/01 08:11:50;;;;;;;;;;;23.20;32.20;;;;;;5053769;28;19912;-57
2021/04/01 08:14:19;;;;;;;;;;;23.20;32.10;;;;;;5042052;28;20326;-56
2021/04/01 08:17:01;;;;;;;;;;;23.20;32.00;;;;;;5047346;28;19909;-56
2021/04/01 08:19:33;;;;;;;;;;;23.20;32.00;;;;;;5046599;28;19970;-56
2021/04/01 08:22:00;;;;;;;;;;;23.30;32.00;;;;;;5048213;28;19931;-51
2021/04/01 08:24:34;;;;;;;;;;;23.30;32.00;;;;;;5047430;28;19931;-55
2021/04/01 08:35:28;;;;;;;;;;;23.40;31.90;;;;;;5045575;28;19908;-56
2021/04/01 08:38:18;;;;;;;;;;;23.40;31.80;;;;;;5045336;28;19913;-55
2021/04/01 08:40:43;;;;;;;;;;;23.40;31.80;;;;;;5045764;28;19909;-51
2021/04/01 08:43:36;;;;;;;;;;;23.40;31.70;;;;;;5048988;28;20355;-54
2021/04/01 08:46:20;;;;;;;;;;;23.40;31.70;;;;;;5045274;28;19912;-60
2021/04/01 08:48:53;;;;;;;;;;;23.50;31.70;;;;;;5047179;28;19920;-55
2021/04/01 08:51:38;;;;;;;;;;;23.40;31.60;;;;;;5043417;28;19962;-58
2021/04/01 08:54:34;;;;;;;;;;;23.50;31.60;;;;;;5042998;28;19924;-58
2021/04/01 08:57:16;;;;;;;;;;;23.50;31.60;;;;;;5027298;28;20344;-56
2021/04/01 08:59:46;;;;;;;;;;;23.50;31.50;;;;;;5040642;28;20339;-54
2021/04/01 09:02:13;;;;;;;;;;;23.50;31.50;;;;;;5043918;28;19928;-61
2021/04/01 09:04:45;;;;;;;;;;;23.50;31.50;;;;;;5044051;28;20356;-57
2021/04/01 09:07:13;;;;;;;;;;;23.50;31.50;;;;;;5044328;28;19912;-52
2021/04/01 09:09:41;;;;;;;;;;;23.50;31.50;;;;;;5043013;28;19939;-58
2021/04/01 09:12:18;;;;;;;;;;;23.60;31.50;;;;;;5043184;28;19917;-60
2021/04/01 09:14:50;;;;;;;;;;;23.60;31.40;;;;;;5046198;28;20030;-55
2021/04/01 09:17:27;;;;;;;;;;;23.60;31.40;;;;;;5047748;28;19912;-58
2021/04/01 09:19:53;;;;;;;;;;;23.60;31.40;;;;;;5047818;28;20228;-59
2021/04/01 09:22:22;;;;;;;;;;;23.60;31.30;;;;;;5049376;28;19913;-55
2021/04/01 09:24:59;;;;;;;;;;;23.60;31.30;;;;;;5047566;28;19920;-58
2021/04/01 09:27:26;;;;;;;;;;;23.60;31.20;;;;;;5048454;28;19920;-54
2021/04/01 09:30:06;;;;;;;;;;;23.70;31.20;;;;;;5050194;28;20278;-57
2021/04/01 09:32:33;;;;;;;;;;;23.70;31.20;;;;;;5046149;28;20303;-56
2021/04/01 09:35:00;;;;;;;;;;;23.70;31.10;;;;;;5043210;28;19927;-54
2021/04/01 09:37:27;;;;;;;;;;;23.60;31.00;;;;;;5046167;28;20319;-56
2021/04/01 09:39:53;;;;;;;;;;;23.70;31.00;;;;;;5047741;28;19923;-55
2021/04/01 09:42:19;;;;;;;;;;;23.60;31.60;;;;;;5043822;28;19919;-56
2021/04/01 09:44:48;;;;;;;;;;;23.60;30.90;;;;;;5046708;28;19946;-55
2021/04/01 09:47:22;;;;;;;;;;;23.60;30.90;;;;;;5044953;28;19946;-57
2021/04/01 09:49:55;;;;;;;;;;;23.60;30.90;;;;;;5044147;28;19920;-52
2021/04/01 09:52:25;;;;;;;;;;;23.60;30.90;;;;;;5044123;28;19995;-52
2021/04/01 09:54:59;;;;;;;;;;;23.70;31.00;;;;;;5046375;28;20019;-56
2021/04/01 09:57:44;;;;;;;;;;;23.70;31.00;;;;;;5044656;28;19939;-54
2021/04/01 10:00:29;;;;;;;;;;;23.70;31.00;;;;;;5046097;28;19912;-52
2021/04/01 10:03:03;;;;;;;;;;;23.70;31.00;;;;;;5042233;28;19917;-53
2021/04/01 10:05:32;;;;;;;;;;;23.70;31.00;;;;;;5041882;28;19920;-55
2021/04/01 10:07:58;;;;;;;;;;;23.70;31.00;;;;;;5044154;28;20018;-58
2021/04/01 10:10:34;;;;;;;;;;;23.70;31.00;;;;;;5040516;28;20003;-57
2021/04/01 10:13:00;;;;;;;;;;;23.70;31.00;;;;;;5043666;28;20042;-55
2021/04/01 10:15:29;;;;;;;;;;;23.70;31.00;;;;;;5050227;28;20015;-57
2021/04/01 10:17:56;;;;;;;;;;;23.70;31.00;;;;;;5047607;28;19908;-57
2021/04/01 10:20:22;;;;;;;;;;;23.70;30.90;;;;;;5048863;28;19913;-59
2021/04/01 10:22:48;;;;;;;;;;;23.70;30.90;;;;;;5045678;28;19927;-54
2021/04/01 10:27:51;;;;;;;;;;;23.70;30.80;;;;;;5046143;28;19909;-57
2021/04/01 10:30:18;;;;;;;;;;;23.70;30.80;;;;;;5048228;28;19916;-58
2021/04/01 10:32:46;;;;;;;;;;;23.70;30.80;;;;;;5047707;28;19927;-56
2021/04/01 10:35:15;;;;;;;;;;;23.60;30.70;;;;;;5049723;28;19928;-56
2021/04/01 10:37:45;;;;;;;;;;;23.60;30.60;;;;;;5045133;28;19960;-53
2021/04/01 10:40:12;;;;;;;;;;;23.70;30.70;;;;;;5051266;28;19909;-50
2021/04/01 10:42:39;;;;;;;;;;;23.60;30.60;;;;;;5049237;28;19909;-58
2021/04/01 10:45:07;;;;;;;;;;;23.60;30.60;;;;;;5050768;28;20318;-55
2021/04/01 10:47:51;;;;;;;;;;;23.60;30.60;;;;;;5053745;28;19956;-55
2021/04/01 10:50:18;;;;;;;;;;;23.70;30.70;;;;;;5052507;28;19908;-60
2021/04/01 10:52:44;;;;;;;;;;;23.60;30.60;;;;;;5052902;28;20284;-54
2021/04/01 10:55:10;;;;;;;;;;;23.60;30.60;;;;;;5034802;28;19919;-56
2021/04/01 10:57:36;;;;;;;;;;;23.60;30.60;;;;;;5052292;28;19951;-60
2021/04/01 11:00:13;;;;;;;;;;;23.70;30.70;;;;;;5054561;28;19908;-53
2021/04/01 11:02:40;;;;;;;;;;;23.70;30.70;;;;;;5051565;28;19909;-60
2021/04/01 11:05:08;;;;;;;;;;;23.60;30.60;;;;;;5054215;28;19916;-55
2021/04/01 11:07:42;;;;;;;;;;;23.70;30.70;;;;;;5053716;28;20236;-54
2021/04/01 11:10:09;;;;;;;;;;;23.70;30.70;;;;;;5052139;28;19951;-56
2021/04/01 11:12:35;;;;;;;;;;;23.70;30.80;;;;;;5048967;28;19924;-58
2021/04/01 11:15:05;;;;;;;;;;;23.70;30.80;;;;;;5049560;28;21128;-58
2021/04/01 11:17:33;;;;;;;;;;;23.70;30.80;;;;;;5046488;28;20354;-55
2021/04/01 11:20:00;;;;;;;;;;;23.70;30.80;;;;;;5053541;28;20025;-57
2021/04/01 11:22:26;;;;;;;;;;;23.70;30.80;;;;;;5053786;28;19912;-59
2021/04/01 11:24:52;;;;;;;;;;;23.80;30.90;;;;;;5053267;28;19923;-52
2021/04/01 11:27:21;;;;;;;;;;;23.80;30.90;;;;;;5053830;28;19908;-57
2021/04/01 11:29:57;;;;;;;;;;;23.80;30.90;;;;;;5049516;28;20014;-55
2021/04/01 11:32:24;;;;;;;;;;;23.80;30.90;;;;;;5049442;28;19920;-56
2021/04/01 11:34:51;;;;;;;;;;;23.80;30.90;;;;;;5052530;28;19920;-56
2021/04/01 11:37:21;;;;;;;;;;;23.80;30.90;;;;;;5053984;28;19908;-57
2021/04/01 11:39:48;;;;;;;;;;;23.80;30.90;;;;;;5054228;28;19920;-58
2021/04/01 11:42:14;;;;;;;;;;;23.80;30.90;;;;;;5054471;28;19964;-57
2021/04/01 11:44:41;;;;;;;;;;;23.90;31.00;;;;;;5053297;28;19916;-58
2021/04/01 11:47:14;;;;;;;;;;;23.90;31.00;;;;;;5053479;28;20223;-56
2021/04/01 11:49:39;;;;;;;;;;;23.90;31.00;;;;;;5050451;28;19912;-55
2021/04/01 11:52:09;;;;;;;;;;;23.90;31.00;;;;;;5049990;28;20350;-57
2021/04/01 11:54:35;;;;;;;;;;;23.90;31.00;;;;;;5051328;28;19916;-56
2021/04/01 11:57:01;;;;;;;;;;;23.90;31.00;;;;;;5053540;28;19982;-57
2021/04/01 11:59:34;;;;;;;;;;;23.90;31.00;;;;;;5051834;28;19908;-57
2021/04/01 12:02:08;;;;;;;;;;;24.00;31.00;;;;;;5051743;28;20237;-56
2021/04/01 12:04:36;;;;;;;;;;;24.00;31.00;;;;;;5049540;28;19921;-59
2021/04/01 12:07:04;;;;;;;;;;;24.00;31.00;;;;;;5053533;28;20343;-56
2021/04/01 12:09:30;;;;;;;;;;;24.00;31.00;;;;;;5047180;28;19916;-57
2021/04/01 12:11:55;;;;;;;;;;;24.00;31.00;;;;;;5051758;28;20355;-56
2021/04/01 12:14:31;;;;;;;;;;;24.10;31.10;;;;;;5055163;28;20229;-56
2021/04/01 12:17:00;;;;;;;;;;;24.10;31.10;;;;;;5053181;28;20390;-57
2021/04/01 12:19:26;;;;;;;;;;;24.10;31.10;;;;;;5051130;28;19919;-54
2021/04/01 12:21:51;;;;;;;;;;;24.10;31.10;;;;;;5052554;28;20239;-57
2021/04/01 12:24:17;;;;;;;;;;;24.10;31.70;;;;;;5048724;28;19928;-55
2021/04/01 12:26:47;;;;;;;;;;;24.10;31.10;;;;;;5052706;28;19930;-57
2021/04/01 12:29:13;;;;;;;;;;;24.10;31.10;;;;;;5050869;28;19908;-56
2021/04/01 12:31:40;;;;;;;;;;;24.10;31.10;;;;;;5053214;28;20342;-59
2021/04/01 12:34:11;;;;;;;;;;;24.10;31.10;;;;;;5050300;28;19916;-57
2021/04/01 12:36:38;;;;;;;;;;;24.20;31.10;;;;;;5053857;28;20418;-56
2021/04/01 12:39:05;;;;;;;;;;;24.10;31.10;;;;;;5050108;28;19912;-60
2021/04/01 12:41:31;;;;;;;;;;;24.10;31.10;;;;;;5052874;28;20454;-58
2021/04/01 12:43:58;;;;;;;;;;;24.10;31.10;;;;;;5052506;28;19917;-56
2021/04/01 12:46:34;;;;;;;;;;;24.10;31.00;;;;;;5050608;28;19920;-58
2021/04/01 12:49:00;;;;;;;;;;;24.20;31.10;;;;;;5054088;28;19908;-52
2021/04/01 12:51:26;;;;;;;;;;;24.20;31.10;;;;;;5054370;28;19912;-55
2021/04/01 12:54:16;;;;;;;;;;;24.20;31.10;;;;;;5054788;28;20692;-55
2021/04/01 12:56:50;;;;;;;;;;;24.20;31.10;;;;;;5055128;28;19910;-56
2021/04/01 12:59:21;;;;;;;;;;;24.20;31.10;;;;;;5054900;28;19909;-55
2021/04/01 13:01:51;;;;;;;;;;;24.20;31.00;;;;;;5054952;28;19909;-54
2021/04/01 13:04:20;;;;;;;;;;;24.20;31.00;;;;;;5054541;28;20336;-60
2021/04/01 13:11:50;;;;;;;;;;;24.20;31.00;;;;;;5054582;28;19995;-55
2021/04/01 13:14:16;;;;;;;;;;;24.20;30.90;;;;;;5053315;28;20257;-58
2021/04/01 13:16:42;;;;;;;;;;;24.20;30.90;;;;;;5054339;28;19909;-58
2021/04/01 13:19:08;;;;;;;;;;;24.20;30.90;;;;;;5055069;28;19912;-56
2021/04/01 13:25:03;;;;;;;;;;;24.20;30.90;;;;;;5054530;28;19917;-56
2021/04/01 13:26:59;;;;;;;;;;;24.20;30.90;;;;;;5052500;28;19931;-59
2021/04/01 13:29:28;;;;;;;;;;;24.20;30.90;;;;;;5054885;28;20020;-59
2021/04/01 13:39:24;;;;;;;;;;;24.10;30.60;;;;;;5054507;28;19912;-54
2021/04/01 13:44:20;;;;;;;;;;;24.10;30.60;;;;;;5054387;28;19913;-58
2021/04/01 13:46:46;;;;;;;;;;;24.10;30.50;;;;;;5054856;28;19916;-57
2021/04/01 13:49:18;;;;;;;;;;;24.10;30.40;;;;;;5054346;28;19908;-57
2021/04/01 13:51:43;;;;;;;;;;;24.10;30.40;;;;;;5054427;28;19962;-56
2021/04/01 13:57:04;;;;;;;;;;;24.10;30.30;;;;;;5057411;28;19977;-56
2021/04/01 13:59:39;;;;;;;;;;;24.10;30.20;;;;;;5056030;28;20051;-59
2021/04/01 14:09:01;;;;;;;;;;;24.10;30.20;;;;;;5053758;28;19916;-59
2021/04/01 14:10:26;;;;;;;;;;;24.10;30.20;;;;;;5070924;28;19919;-58
2021/04/01 14:12:52;;;;;;;;;;;24.10;30.20;;;;;;5056837;28;19995;-59
2021/04/01 14:15:18;;;;;;;;;;;24.10;30.20;;;;;;5046807;28;20231;-59
2021/04/01 14:17:44;;;;;;;;;;;24.10;30.10;;;;;;5056223;28;19908;-59
2021/04/01 14:20:11;;;;;;;;;;;24.10;30.00;;;;;;5054408;28;20248;-56
2021/04/01 14:22:39;;;;;;;;;;;24.10;30.00;;;;;;5057189;28;19913;-59
2021/04/01 14:25:13;;;;;;;;;;;24.10;30.00;;;;;;5056044;28;19917;-60
2021/04/01 14:27:45;;;;;;;;;;;24.10;29.90;;;;;;5054326;28;19924;-60
2021/04/01 14:30:14;;;;;;;;;;;24.20;29.90;;;;;;5053861;28;19913;-57
2021/04/01 14:32:42;;;;;;;;;;;24.10;29.80;;;;;;5056627;28;20243;-58
2021/04/01 14:35:08;;;;;;;;;;;24.20;29.80;;;;;;5054870;28;19908;-56
2021/04/01 14:37:34;;;;;;;;;;;24.20;29.80;;;;;;5053965;28;19912;-59
2021/04/01 14:40:05;;;;;;;;;;;24.20;29.70;;;;;;5055983;28;19923;-57
2021/04/01 14:43:11;;;;;;;;;;;24.20;29.60;;;;;;5056408;28;19913;-54
2021/04/01 14:45:24;;;;;;;;;;;24.20;29.60;;;;;;5054258;28;19920;-59
2021/04/01 14:47:50;;;;;;;;;;;24.20;29.60;;;;;;5056278;28;19920;-58
2021/04/01 14:50:17;;;;;;;;;;;24.20;29.50;;;;;;5055789;28;19940;-56
2021/04/01 14:52:43;;;;;;;;;;;24.20;29.50;;;;;;5055027;28;19920;-59
2021/04/01 14:55:09;;;;;;;;;;;24.20;29.40;;;;;;5055956;28;19916;-60
2021/04/01 14:57:37;;;;;;;;;;;24.20;29.40;;;;;;5048892;28;19917;-60
2021/04/01 15:00:06;;;;;;;;;;;24.20;29.30;;;;;;5056046;28;20229;-59
2021/04/01 15:02:32;;;;;;;;;;;24.20;29.30;;;;;;5053675;28;19991;-61
2021/04/01 15:04:58;;;;;;;;;;;24.20;29.30;;;;;;5055253;28;20019;-60
2021/04/01 15:07:25;;;;;;;;;;;24.20;29.20;;;;;;5054447;28;19952;-59
2021/04/01 15:09:50;;;;;;;;;;;24.20;29.20;;;;;;5041657;28;19919;-59
2021/04/01 15:12:17;;;;;;;;;;;24.20;29.60;;;;;;5055566;28;19913;-57
2021/04/01 15:14:43;;;;;;;;;;;24.20;29.10;;;;;;5053362;28;20067;-62
2021/04/01 15:17:09;;;;;;;;;;;24.20;29.10;;;;;;5055034;28;19978;-60
2021/04/01 15:19:35;;;;;;;;;;;24.30;29.00;;;;;;5038781;28;20339;-61
2021/04/01 15:22:00;;;;;;;;;;;24.20;28.90;;;;;;5046896;28;20011;-57
2021/04/01 15:24:26;;;;;;;;;;;24.20;28.90;;;;;;5048637;28;19936;-61
2021/04/01 15:26:53;;;;;;;;;;;24.20;28.80;;;;;;5055089;28;19920;-57
2021/04/01 15:29:19;;;;;;;;;;;24.20;28.80;;;;;;5055470;28;19909;-61
2021/04/01 15:31:45;;;;;;;;;;;24.20;28.70;;;;;;5055581;28;19909;-60
2021/04/01 15:34:11;;;;;;;;;;;24.20;28.50;;;;;;5054940;28;19921;-59
2021/04/01 15:36:37;;;;;;;;;;;24.20;28.20;;;;;;5051590;28;19913;-60
2021/04/01 15:39:03;;;;;;;;;;;24.20;27.90;;;;;;5055773;28;20021;-59
2021/04/01 15:41:29;;;;;;;;;;;24.10;27.70;;;;;;5048952;28;20226;-60
2021/04/01 15:43:55;;;;;;;;;;;24.10;27.60;;;;;;5046526;28;19927;-59
2021/04/01 15:46:23;;;;;;;;;;;24.10;27.50;;;;;;5054972;28;19908;-60
2021/04/01 15:48:49;;;;;;;;;;;24.00;27.30;;;;;;5037854;28;19909;-58
2021/04/01 15:51:15;;;;;;;;;;;24.10;27.20;;;;;;5054452;28;19909;-61
2021/04/01 15:53:40;;;;;;;;;;;24.00;27.00;;;;;;5046242;28;19916;-58
2021/04/01 15:56:06;;;;;;;;;;;24.00;26.80;;;;;;5054503;28;20320;-60
2021/04/01 15:58:32;;;;;;;;;;;24.00;26.60;;;;;;5053470;28;19988;-60
2021/04/01 16:00:58;;;;;;;;;;;23.90;26.40;;;;;;5036729;28;19928;-57
2021/04/01 16:03:24;;;;;;;;;;;23.90;26.30;;;;;;5037226;28;19920;-58
2021/04/01 16:05:50;;;;;;;;;;;24.00;26.30;;;;;;5055687;28;20016;-58
2021/04/01 16:08:16;;;;;;;;;;;23.90;26.30;;;;;;5053406;28;19916;-53
2021/04/01 16:10:41;;;;;;;;;;;23.90;26.40;;;;;;5053320;28;19909;-56
2021/04/01 16:13:07;;;;;;;;;;;23.90;26.50;;;;;;5055384;28;19922;-60
2021/04/01 16:15:34;;;;;;;;;;;23.90;26.50;;;;;;5052873;28;20286;-55
2021/04/01 16:18:01;;;;;;;;;;;23.90;26.50;;;;;;5052494;28;19956;-60